Batesville, AR (72503)

2:47 PM CDT on September 01, 2014 (GMT -0500)
Batesville Regional | Change Station
CLOSE
Current Station
Airport
Location: Batesville,
Elevation: 463 ft
Nearby Weather Stations

Elev 463 ft 35.73 °N, 91.65 °W | Updated 12 minutes ago

Overcast
Overcast
90 °F
Feels Like 95 °F
N
13
Wind Variable Wind from SW

Today
High -- | Low -- °F
--% Chance of Precip.
Yesterday
High -- | Low -- °F
Precip. -- in
6:38 AM 7:33 PM
Waxing Crescent, 43% visible
Pressure 29.96 in
Visibility 10.0 miles
Clouds Few 4300 ft
Overcast 6000 ft
Heat Index 95 °F
Dew Point 70 °F
Humidity 52%
Rainfall 0.00 in
Snow Depth Not available.
UV 3 out of 12
Pollen 10.70 out of 12
Air Quality Not available.
Flu Activity Not available.
METAR KBVX 011935Z AUTO 23011KT 10SM FEW043 OVC060 32/21 A2996 RMK AO1

More Conditions Fewer Conditions

Pressure 29.96 in
Visibility 10.0 miles
Clouds Few 4300 ft
Overcast 6000 ft
Heat Index 95 °F
Dew Point 70 °F
Humidity 52%
Rainfall 0.00 in
Snow Depth Not available.
UV 3 out of 12
Pollen 10.70 out of 12
Air Quality Not available.
Flu Activity Not available.
METAR KBVX 011935Z AUTO 23011KT 10SM FEW043 OVC060 32/21 A2996 RMK AO1

More Conditions Fewer Conditions

10-Day Weather Forecast

Almanac

Astronomy

Sep. 01, 2014 Rise Set
Actual Time 6:38 AM CDT 7:33 PM CDT
Civil Twilight 6:12 AM CDT 8:00 PM CDT
Nautical Twilight 5:41 AM CDT 8:30 PM CDT
Astronomical Twilight 5:09 AM CDT 9:02 PM CDT
Moon 1:11 PM CDT 11:49 PM CDT
Length of Visible Light 13h 47m
Length of Day
12h 55m
Tomorrow will be 2m 9s shorter.
Waxing Crescent, 43% of the Moon is Illuminated
Today
Waxing Crescent
Sep 2
First Quarter
Sep 8
Full
Sep 15
Last Quarter
Sep 24
New

Today's Extremes

State Highs State Lows

Community

WunderPhotos

Upload Photos

1,749,387 photos uploaded!

WunderBlogs® & News

Nearby

Snow Depth

Station Depth Elevation
No new snow has been reported.

Earthquake Activity

City Distance Mag. Time & Date
No recent earthquake activity has been reported nearby.
Minimum magnitude displayed is 2.5.

Coastal Water Temperatures

Place Temperature
No Stations Reporting

Nearby Weather Stations